Burnwell, AL (35038)

2:14 PM CDT on August 28, 2015 (GMT -0500)
Walker County-Bevill | | Change Station
CLOSE
Current Station
Airport
Location: Jasper,
Elevation: 482 ft
Nearby Weather Stations

Elev 482 ft 33.90 °N, 87.31 °W | Updated 19 minutes ago

Clear
Clear
91 °F
Feels Like 95 °F
N
6
Wind Variable Wind from SE

Today
High -- | Low -- °F
--% Chance of Precip.
Yesterday
High -- | Low -- °F
Precip. -- in
6:20 AM 7:20 PM
Waxing Gibbous, 99% visible
Pressure 30.06 in
Visibility 10.0 miles
Clouds Clear
Heat Index 95 °F
Dew Point 68 °F
Humidity 46%
Rainfall 0.00 in
Snow Depth Not available.
UV 10 out of 12
Pollen 8.80 out of 12
Air Quality Not available.
Flu Activity Not available.
METAR KJFX 281855Z AUTO 14005KT 10SM CLR 33/20 A3006 RMK A02 P-128
Pressure 30.06 in
Visibility 10.0 miles
Clouds Clear
Heat Index 95 °F
Dew Point 68 °F
Humidity 46%
Rainfall 0.00 in
Snow Depth Not available.
UV 10 out of 12
Pollen 8.80 out of 12
Air Quality Not available.
Flu Activity Not available.
METAR KJFX 281855Z AUTO 14005KT 10SM CLR 33/20 A3006 RMK A02 P-128

10-Day Weather Forecast

×

Almanac

Astronomy

Aug. 28, 2015 Rise Set
Actual Time
Civil Twilight
Nautical Twilight
Astronomical Twilight
Moon
Length of Visible Light
Length of Day
Tomorrow will be .
, % of the Moon is Illuminated

Today's Extremes

State Highs State Lows

Community

WunderPhotos

Upload Photos

1,850,460 photos uploaded!

WunderBlogs® & News

Nearby

Air Quality

  Air Quality AQ Index Pollutant
Not available.

Snow Depth

Station Depth Elevation

Earthquake Activity

City Distance Mag. Time & Date
Minimum magnitude displayed is 2.5.

Coastal Water Temperatures

Place Temperature

Stations

Nearby Weather Stations

Station Location Temp. Windchill Dew Point Humidity Wind Precip. Elev Updated Type